Startpagina
METAR-TAF:

METAR-TAF

Vliegvelden :

Luchthaven Mariehamn

Mariehamn, Finland

breedte: 60-07N, lengte: 019-54E, hoogte: 6 m

Actueel weer

Dit bericht is 39 minuten geleden gemaakt, om 17:20 UTC
Wind 2 kt uit variabele richting
Temperatuur 6°C
Vochtigheid 87%
Druk 1023 hPa
Zicht 10 km of meer
geen wolken onder 1500 m en geen cumulonimbus

METAR: EFMA 191720Z AUTO VRB02KT CAVOK 06/04 Q1023

Tijdstip: 20:59 (17:59 UTC)

Verwachting

Dit bericht is 28 minuten geleden gemaakt, om 17:31 UTC
Verwachting geldig van 19 om 18 UTC tot 20 om 03 UTC
Wind 3 kt uit het westzuidwesten
Zicht 10 km of meer
geen wolken onder 1500 m en geen cumulonimbus

TAF: EFMA 191731Z 1918/2003 25003KT CAVOK

Waarnemingen en weersverwachtingen van meer dan 4000 vliegvelden (METAR en TAF).

De beschikbare stations zijn de gele en rode punten op de kaart.

Ga met uw muis naar het station om de naam te zien.

Klik dan om waarnemingen en weersverwachtingen te zien.

kaart wijzigen: klik op de groene knoppen met een zwart kruis om in te zoomen, op de groene knop met een streepje om uit te zoomen of op de groene pijlen voor aangrenzende kaarten.


METAR-TAF: